Time;durP1;ratioP1;P1;durP2;ratioP2;P2;SDS_P1;SDS_P2;PMS_P1;PMS_P2;Temp;Humidity;BMP_temperature;BMP_pressure;BME280_temperature;BME280_humidity;BME280_pressure;Samples;Min_cycle;Max_cycle;Signal;HPM_P1;HPM_P2
2022/04/19 00:01:23;;;;;;;2.40;1.25;;;3.90;94.90;;;;;;5054436;28;20017;-82
2022/04/19 00:03:49;;;;;;;2.88;1.25;;;3.90;95.10;;;;;;5054422;28;20354;-81
2022/04/19 00:06:15;;;;;;;5.50;2.30;;;3.90;95.30;;;;;;5053277;28;20029;-82
2022/04/19 00:08:41;;;;;;;8.02;3.30;;;3.80;95.50;;;;;;5053145;28;20445;-81
2022/04/19 00:11:06;;;;;;;6.95;2.80;;;3.70;96.00;;;;;;5054591;28;20102;-82
2022/04/19 00:13:32;;;;;;;6.93;2.45;;;3.60;96.20;;;;;;5052967;28;20028;-82
2022/04/19 00:15:58;;;;;;;3.80;1.70;;;3.60;96.40;;;;;;5053040;28;20477;-81
2022/04/19 00:18:25;;;;;;;2.25;1.40;;;3.60;96.60;;;;;;5053010;28;20028;-82
2022/04/19 00:20:51;;;;;;;2.30;1.42;;;3.60;96.70;;;;;;5054047;28;20037;-82
2022/04/19 00:23:17;;;;;;;2.65;1.20;;;3.60;96.70;;;;;;5053883;28;20060;-82
2022/04/19 00:25:44;;;;;;;2.50;1.38;;;3.60;96.50;;;;;;5052586;28;20048;-81
2022/04/19 00:28:11;;;;;;;3.03;1.70;;;3.60;96.50;;;;;;5054111;28;20032;-82
2022/04/19 00:30:37;;;;;;;6.28;1.73;;;3.50;96.60;;;;;;5054651;28;20021;-82
2022/04/19 00:33:07;;;;;;;2.97;1.60;;;3.50;96.70;;;;;;5052918;28;20021;-82
2022/04/19 00:35:33;;;;;;;3.55;1.67;;;3.40;97.20;;;;;;5053949;28;20017;-81
2022/04/19 00:37:59;;;;;;;4.88;1.23;;;3.30;97.70;;;;;;5053934;28;20035;-81
2022/04/19 00:40:26;;;;;;;2.78;1.20;;;3.20;98.00;;;;;;5053700;28;20025;-81
2022/04/19 00:42:55;;;;;;;1.50;1.05;;;3.20;98.20;;;;;;5053854;28;20025;-82
2022/04/19 00:45:24;;;;;;;2.13;1.20;;;3.20;98.30;;;;;;5052234;28;20025;-81
2022/04/19 00:47:51;;;;;;;3.20;1.48;;;3.20;98.50;;;;;;5053928;28;20033;-82
2022/04/19 00:50:17;;;;;;;5.22;2.25;;;3.20;98.60;;;;;;5053543;28;20025;-82
2022/04/19 00:52:43;;;;;;;3.05;1.42;;;3.20;98.70;;;;;;5053566;28;20056;-82
2022/04/19 00:55:10;;;;;;;2.60;1.40;;;3.20;98.80;;;;;;5053497;28;20033;-82
2022/04/19 00:57:40;;;;;;;1.95;1.20;;;3.10;98.90;;;;;;5053516;28;20025;-82
2022/04/19 01:00:08;;;;;;;2.90;1.30;;;3.10;99.00;;;;;;5054161;28;20025;-82
2022/04/19 01:02:36;;;;;;;4.95;1.80;;;3.10;99.10;;;;;;5052129;28;20021;-81
2022/04/19 01:05:03;;;;;;;4.93;2.10;;;3.10;99.20;;;;;;5053700;28;20104;-82
2022/04/19 01:07:29;;;;;;;6.45;2.28;;;3.10;99.30;;;;;;5054454;28;20036;-82
2022/04/19 01:09:54;;;;;;;6.15;2.47;;;3.10;99.40;;;;;;5051991;28;20112;-81
2022/04/19 01:15:07;;;;;;;3.92;2.20;;;3.10;99.50;;;;;;5052500;28;20048;-81
2022/04/19 01:17:35;;;;;;;4.00;2.00;;;3.00;99.70;;;;;;5053380;28;20055;-81
2022/04/19 01:20:02;;;;;;;2.83;1.35;;;3.00;99.90;;;;;;5054141;28;20032;-82
2022/04/19 01:22:37;;;;;;;2.83;1.25;;;2.90;99.90;;;;;;5054077;28;20025;-82
2022/04/19 01:25:03;;;;;;;3.40;1.52;;;2.90;99.90;;;;;;5053575;28;20037;-81
2022/04/19 01:27:29;;;;;;;1.98;1.23;;;2.90;99.90;;;;;;5052119;28;20029;-82
2022/04/19 01:30:00;;;;;;;2.08;1.20;;;2.90;99.90;;;;;;5053181;28;20024;-82
2022/04/19 01:32:26;;;;;;;;;;;2.80;99.90;;;;;;5054186;28;20028;-82
2022/04/19 01:35:05;;;;;;;2.35;1.17;;;2.70;99.90;;;;;;5051854;28;19905;-81
2022/04/19 01:37:38;;;;;;;2.63;1.27;;;2.80;99.90;;;;;;5052972;28;20533;-81
2022/04/19 01:40:17;;;;;;;2.85;1.20;;;2.70;99.90;;;;;;5053222;28;20509;-82
2022/04/19 01:42:54;;;;;;;2.33;1.00;;;2.70;99.90;;;;;;5053033;28;20028;-81
2022/04/19 01:45:24;;;;;;;2.88;0.90;;;2.70;99.90;;;;;;5051686;28;20029;-81
2022/04/19 01:47:51;;;;;;;3.07;1.37;;;2.70;99.90;;;;;;5053318;28;20067;-81
2022/04/19 01:50:18;;;;;;;3.88;1.33;;;2.70;99.90;;;;;;5053270;28;20021;-81
2022/04/19 01:52:46;;;;;;;3.30;1.60;;;2.70;99.90;;;;;;5052892;28;20053;-82
2022/04/19 01:55:14;;;;;;;3.17;1.40;;;2.80;99.90;;;;;;5052727;28;20068;-81
2022/04/19 01:57:44;;;;;;;2.92;1.30;;;2.70;99.90;;;;;;5054824;28;20025;-82
2022/04/19 02:00:12;;;;;;;3.03;1.48;;;2.70;99.90;;;;;;5056475;28;20028;-82
2022/04/19 02:02:38;;;;;;;2.97;1.33;;;2.70;99.90;;;;;;5056375;28;20110;-82
2022/04/19 02:05:05;;;;;;;1.92;1.05;;;2.70;99.90;;;;;;5056392;28;20036;-81
2022/04/19 02:07:32;;;;;;;3.05;1.70;;;2.70;99.90;;;;;;5056850;28;20354;-81
2022/04/19 02:10:00;;;;;;;2.70;1.50;;;2.70;99.90;;;;;;5056419;28;20054;-81
2022/04/19 02:12:27;;;;;;;2.15;1.27;;;2.60;99.90;;;;;;5056676;28;20063;-81
2022/04/19 02:14:53;;;;;;;2.50;1.40;;;2.60;99.90;;;;;;5054950;28;20025;-81
2022/04/19 02:17:20;;;;;;;3.65;1.45;;;2.60;99.90;;;;;;5056263;28;20056;-81
2022/04/19 02:19:49;;;;;;;2.00;1.17;;;2.50;99.90;;;;;;5055029;28;20017;-82
2022/04/19 02:22:15;;;;;;;2.13;1.15;;;2.50;99.90;;;;;;5055318;28;20032;-82
2022/04/19 02:24:41;;;;;;;4.03;1.60;;;2.50;99.90;;;;;;5056132;28;20021;-82
2022/04/19 02:27:07;;;;;;;3.00;1.58;;;2.50;99.90;;;;;;5056080;28;20059;-82
2022/04/19 02:29:32;;;;;;;2.35;1.30;;;2.50;99.90;;;;;;5056379;28;20021;-82
2022/04/19 02:31:58;;;;;;;2.92;1.45;;;2.40;99.90;;;;;;5054759;28;20033;-82
2022/04/19 02:34:24;;;;;;;2.28;1.27;;;2.40;99.90;;;;;;5056511;28;20052;-81
2022/04/19 02:36:52;;;;;;;3.55;1.30;;;2.40;99.90;;;;;;5055809;28;20036;-82
2022/04/19 02:39:19;;;;;;;1.65;1.10;;;2.40;99.90;;;;;;5055881;28;20396;-81
2022/04/19 02:41:44;;;;;;;4.43;1.80;;;2.40;99.90;;;;;;5055821;28;20025;-81
2022/04/19 02:44:10;;;;;;;2.72;1.60;;;2.50;99.90;;;;;;5054481;28;20054;-81
2022/04/19 02:46:36;;;;;;;4.47;1.88;;;2.40;99.90;;;;;;5055770;28;20033;-82
2022/04/19 02:49:05;;;;;;;8.27;3.97;;;2.40;99.90;;;;;;5055745;28;20075;-81
2022/04/19 02:51:32;;;;;;;8.07;3.85;;;2.40;99.90;;;;;;5055780;28;20028;-81
2022/04/19 02:53:58;;;;;;;6.65;3.33;;;2.30;99.90;;;;;;5054351;28;20036;-81
2022/04/19 02:56:24;;;;;;;6.78;3.08;;;2.30;99.90;;;;;;5055550;28;20096;-81
2022/04/19 02:58:50;;;;;;;5.00;2.75;;;2.30;99.90;;;;;;5055575;28;20420;-81
2022/04/19 03:01:15;;;;;;;4.07;2.38;;;2.30;99.90;;;;;;5055545;28;20050;-81
2022/04/19 03:03:43;;;;;;;5.00;2.50;;;2.30;99.90;;;;;;5055579;28;20025;-82
2022/04/19 03:06:08;;;;;;;4.13;2.10;;;2.30;99.90;;;;;;5056140;28;20050;-81
2022/04/19 03:08:35;;;;;;;4.90;2.53;;;2.40;99.90;;;;;;5054970;28;20017;-82
2022/04/19 03:11:04;;;;;;;5.55;2.28;;;2.40;99.90;;;;;;5055611;28;20017;-82
2022/04/19 03:13:32;;;;;;;3.92;1.80;;;2.50;99.90;;;;;;5053983;28;20025;-82
2022/04/19 03:15:58;;;;;;;3.53;1.80;;;2.50;99.90;;;;;;5055162;28;20470;-82
2022/04/19 03:18:24;;;;;;;2.80;1.60;;;2.50;99.90;;;;;;5055238;28;20025;-82
2022/04/19 03:20:50;;;;;;;2.55;1.63;;;2.50;99.90;;;;;;5055276;28;20021;-82
2022/04/19 03:28:47;;;;;;;3.45;1.58;;;2.50;99.90;;;;;;5056054;28;20040;-81
2022/04/19 03:31:13;;;;;;;3.08;1.48;;;2.50;99.90;;;;;;5055031;28;20024;-81
2022/04/19 03:33:40;;;;;;;3.40;1.60;;;2.40;99.90;;;;;;5053678;28;20021;-82
2022/04/19 03:36:08;;;;;;;2.50;1.40;;;2.40;99.90;;;;;;5054614;28;20047;-81
2022/04/19 03:38:34;;;;;;;2.65;1.40;;;2.40;99.90;;;;;;5054770;28;20052;-81
2022/04/19 03:41:00;;;;;;;5.53;1.90;;;2.40;99.90;;;;;;5053365;28;20029;-82
2022/04/19 03:43:26;;;;;;;3.65;1.60;;;2.40;99.90;;;;;;5054970;28;20112;-82
2022/04/19 03:45:51;;;;;;;2.65;1.60;;;2.40;99.90;;;;;;5053506;28;20056;-81
2022/04/19 03:48:17;;;;;;;2.67;1.33;;;2.40;99.90;;;;;;5053543;28;20029;-81
2022/04/19 03:50:44;;;;;;;3.13;1.85;;;2.40;99.90;;;;;;5053966;28;20025;-82
2022/04/19 03:53:10;;;;;;;3.75;2.15;;;2.40;99.90;;;;;;5055544;28;20389;-82
2022/04/19 03:55:35;;;;;;;3.38;1.77;;;2.40;99.90;;;;;;5053640;28;20017;-81
2022/04/19 03:58:03;;;;;;;3.13;1.63;;;2.50;99.90;;;;;;5054383;28;20426;-81
2022/04/19 04:00:28;;;;;;;6.10;1.83;;;2.40;99.90;;;;;;5054479;28;20066;-81
2022/04/19 04:02:55;;;;;;;2.38;1.55;;;2.40;99.90;;;;;;5054534;28;20021;-82
2022/04/19 04:05:23;;;;;;;3.17;1.52;;;2.40;99.90;;;;;;5054650;28;20024;-81
2022/04/19 04:07:48;;;;;;;2.80;1.65;;;2.40;99.90;;;;;;5057462;28;20036;-81
2022/04/19 04:10:14;;;;;;;2.72;1.50;;;2.40;99.90;;;;;;5060745;28;20025;-82
2022/04/19 04:12:40;;;;;;;2.67;1.50;;;2.40;99.90;;;;;;5059112;28;20048;-82
2022/04/19 04:15:06;;;;;;;3.30;1.52;;;2.40;99.90;;;;;;5059273;28;20103;-82
2022/04/19 04:17:32;;;;;;;2.95;1.52;;;2.40;99.90;;;;;;5060885;28;20052;-80
2022/04/19 04:19:59;;;;;;;62.65;17.92;;;2.40;99.90;;;;;;5062877;28;20021;-80
2022/04/19 04:22:25;;;;;;;127.28;32.63;;;2.30;99.90;;;;;;5060442;28;20132;-80
2022/04/19 04:24:51;;;;;;;216.40;60.78;;;2.20;99.90;;;;;;5059619;28;20474;-80
2022/04/19 04:27:16;;;;;;;232.73;66.38;;;2.10;99.90;;;;;;5061056;28;20047;-80
2022/04/19 04:29:42;;;;;;;96.68;32.45;;;2.10;99.90;;;;;;5061373;28;20118;-80
2022/04/19 04:32:08;;;;;;;43.47;14.27;;;2.10;99.90;;;;;;5060590;28;20032;-80
2022/04/19 04:34:34;;;;;;;20.02;6.57;;;2.10;99.90;;;;;;5061442;28;20428;-80
2022/04/19 04:36:59;;;;;;;10.95;4.18;;;2.10;99.90;;;;;;5059793;28;20059;-80
2022/04/19 04:39:25;;;;;;;8.57;3.45;;;2.10;99.90;;;;;;5060479;28;20032;-80
2022/04/19 04:41:51;;;;;;;6.97;2.72;;;2.20;99.90;;;;;;5059704;28;20029;-80
2022/04/19 04:44:16;;;;;;;7.60;3.33;;;2.20;99.90;;;;;;5059596;28;20077;-80
2022/04/19 04:49:35;;;;;;;21.70;8.55;;;2.20;99.90;;;;;;5058895;28;20070;-80
2022/04/19 04:52:05;;;;;;;27.23;10.13;;;2.30;99.90;;;;;;5059650;28;20028;-80
2022/04/19 04:54:31;;;;;;;26.50;8.73;;;2.40;99.90;;;;;;5059123;28;20474;-80
2022/04/19 04:56:56;;;;;;;18.55;7.45;;;2.40;99.90;;;;;;5057952;28;20029;-80
2022/04/19 04:59:22;;;;;;;13.75;5.35;;;2.40;99.90;;;;;;5058662;28;20382;-80
2022/04/19 05:01:48;;;;;;;8.10;3.63;;;2.40;99.90;;;;;;5059108;28;20079;-80
2022/04/19 05:04:13;;;;;;;6.18;2.72;;;2.40;99.90;;;;;;5058448;28;20044;-80
2022/04/19 05:06:40;;;;;;;4.10;2.25;;;2.40;99.90;;;;;;5058077;28;20041;-80
2022/04/19 05:09:05;;;;;;;3.60;1.73;;;2.40;99.90;;;;;;5056894;28;20055;-80
2022/04/19 05:11:31;;;;;;;4.05;1.80;;;2.40;99.90;;;;;;5058217;28;20423;-80
2022/04/19 05:13:57;;;;;;;3.38;1.83;;;2.40;99.90;;;;;;5056310;28;20109;-80
2022/04/19 05:16:23;;;;;;;3.03;1.65;;;2.40;99.90;;;;;;5057876;28;20025;-80
2022/04/19 05:18:49;;;;;;;2.88;1.70;;;2.40;99.90;;;;;;5057351;28;20047;-80
2022/04/19 05:21:14;;;;;;;3.40;1.77;;;2.40;99.90;;;;;;5057496;28;20476;-80
2022/04/19 05:23:40;;;;;;;6.30;2.00;;;2.50;99.90;;;;;;5057714;28;20025;-80
2022/04/19 05:26:06;;;;;;;5.78;2.00;;;2.50;99.90;;;;;;5057363;28;20033;-80
2022/04/19 05:28:31;;;;;;;2.70;1.60;;;2.50;99.90;;;;;;5057677;28;20089;-80
2022/04/19 05:30:57;;;;;;;5.13;2.00;;;2.50;99.90;;;;;;5057794;28;20108;-80
2022/04/19 05:33:23;;;;;;;3.70;1.50;;;2.50;99.90;;;;;;5060957;28;20032;-80
2022/04/19 05:35:49;;;;;;;4.78;1.60;;;2.50;99.90;;;;;;5060655;28;20028;-80
2022/04/19 05:38:14;;;;;;;3.83;1.83;;;2.50;99.90;;;;;;5060267;28;20025;-80
2022/04/19 05:40:40;;;;;;;6.32;1.90;;;2.60;99.90;;;;;;5060714;28;20033;-80
2022/04/19 05:43:06;;;;;;;4.07;1.90;;;2.60;99.90;;;;;;5061156;28;20493;-80
2022/04/19 05:45:32;;;;;;;4.88;1.70;;;2.60;99.90;;;;;;5060970;28;20045;-80
2022/04/19 05:47:58;;;;;;;4.88;2.00;;;2.60;99.90;;;;;;5061086;28;20021;-80
2022/04/19 05:50:23;;;;;;;4.05;2.03;;;2.70;99.90;;;;;;5061140;28;20094;-80
2022/04/19 05:52:49;;;;;;;2.85;1.40;;;2.70;99.90;;;;;;5059533;28;20096;-80
2022/04/19 05:55:15;;;;;;;6.22;2.58;;;2.70;99.90;;;;;;5060758;28;20074;-80
2022/04/19 05:57:41;;;;;;;5.32;2.33;;;2.80;99.90;;;;;;5059487;28;20028;-80
2022/04/19 06:00:07;;;;;;;4.70;2.17;;;2.80;99.90;;;;;;5060227;28;20104;-80
2022/04/19 06:05:17;;;;;;;3.78;2.20;;;2.80;99.90;;;;;;5059671;28;20051;-80
2022/04/19 06:07:47;;;;;;;3.10;2.08;;;2.90;99.90;;;;;;5059279;28;20473;-80
2022/04/19 06:10:16;;;;;;;4.03;2.15;;;2.80;99.90;;;;;;5059054;28;20496;-80
2022/04/19 06:12:42;;;;;;;3.50;2.22;;;2.80;99.90;;;;;;5058744;28;20041;-80
2022/04/19 06:15:11;;;;;;;6.82;2.35;;;2.90;99.90;;;;;;5058917;28;20028;-80
2022/04/19 06:17:38;;;;;;;4.97;2.22;;;2.90;99.90;;;;;;5058665;28;20430;-80
2022/04/19 06:20:05;;;;;;;5.90;2.42;;;2.90;99.90;;;;;;5057624;28;20028;-80
2022/04/19 06:22:31;;;;;;;4.00;2.42;;;2.90;99.90;;;;;;5059008;28;20052;-80
2022/04/19 06:24:58;;;;;;;4.05;2.33;;;3.00;99.90;;;;;;5059414;28;20088;-80
2022/04/19 06:27:24;;;;;;;3.83;2.40;;;3.00;99.90;;;;;;5059188;28;20025;-80
2022/04/19 06:29:52;;;;;;;4.30;2.67;;;3.10;99.90;;;;;;5058413;28;20045;-80
2022/04/19 06:32:22;;;;;;;6.75;3.40;;;3.10;99.90;;;;;;5058953;28;20021;-80
2022/04/19 06:34:48;;;;;;;5.05;3.47;;;3.20;99.90;;;;;;5058550;28;20013;-80
2022/04/19 06:37:14;;;;;;;8.48;5.13;;;3.30;99.90;;;;;;5058965;28;20102;-80
2022/04/19 06:39:41;;;;;;;7.75;4.70;;;3.30;99.90;;;;;;5058390;28;20044;-80
2022/04/19 06:42:06;;;;;;;9.70;4.90;;;3.40;99.90;;;;;;5058095;28;20104;-80
2022/04/19 06:44:32;;;;;;;11.65;5.40;;;3.40;99.90;;;;;;5057783;28;20107;-80
2022/04/19 06:46:58;;;;;;;10.65;6.20;;;3.50;99.90;;;;;;5058096;28;20133;-80
2022/04/19 06:49:24;;;;;;;10.30;5.93;;;3.60;99.90;;;;;;5058529;28;20032;-80
2022/04/19 06:51:50;;;;;;;9.43;4.97;;;3.60;99.90;;;;;;5056716;28;20028;-80
2022/04/19 06:54:16;;;;;;;11.40;4.60;;;3.70;99.90;;;;;;5058467;28;20025;-80
2022/04/19 06:56:45;;;;;;;6.20;4.18;;;3.70;99.90;;;;;;5058321;28;20033;-80
2022/04/19 06:59:11;;;;;;;10.48;5.22;;;3.80;99.90;;;;;;5058119;28;20017;-80
2022/04/19 07:01:39;;;;;;;6.00;3.75;;;3.90;99.90;;;;;;5056505;28;20029;-80
2022/04/19 07:04:05;;;;;;;6.88;3.50;;;4.00;99.90;;;;;;5057833;28;20162;-80
2022/04/19 07:06:31;;;;;;;5.10;2.95;;;4.00;99.90;;;;;;5056502;28;20063;-80
2022/04/19 07:08:56;;;;;;;5.32;3.40;;;4.10;99.90;;;;;;5057855;28;20400;-80
2022/04/19 07:11:22;;;;;;;6.75;2.97;;;4.20;99.90;;;;;;5058192;28;20449;-80
2022/04/19 07:13:48;;;;;;;3.88;2.50;;;4.20;99.90;;;;;;5057991;28;20029;-80
2022/04/19 07:16:14;;;;;;;4.88;2.67;;;4.30;99.90;;;;;;5055932;28;20036;-80
2022/04/19 07:18:39;;;;;;;5.80;2.80;;;4.30;99.90;;;;;;5056163;28;20017;-80
2022/04/19 07:26:45;;;;;;;7.47;3.67;;;4.60;99.90;;;;;;5056958;28;20039;-80
2022/04/19 07:29:12;;;;;;;9.98;3.80;;;4.80;99.90;;;;;;5055283;28;20024;-80
2022/04/19 07:31:42;;;;;;;5.65;3.80;;;4.90;99.90;;;;;;5054948;28;20051;-80
2022/04/19 07:34:09;;;;;;;5.35;3.08;;;5.00;99.90;;;;;;5054830;28;20056;-80
2022/04/19 07:36:37;;;;;;;6.15;3.15;;;5.10;99.90;;;;;;5054881;28;20021;-80
2022/04/19 07:39:06;;;;;;;6.57;3.17;;;5.20;99.90;;;;;;5054850;28;20017;-80
2022/04/19 07:41:31;;;;;;;6.03;3.15;;;5.20;99.90;;;;;;5053947;28;20033;-80
2022/04/19 07:43:57;;;;;;;6.25;3.60;;;5.30;99.90;;;;;;5054662;28;20362;-80
2022/04/19 07:46:23;;;;;;;5.10;3.30;;;5.40;99.90;;;;;;5054741;28;20025;-80
2022/04/19 07:48:51;;;;;;;7.50;2.95;;;5.60;99.90;;;;;;5054601;28;20388;-80
2022/04/19 07:51:18;;;;;;;4.30;2.80;;;5.70;99.90;;;;;;5054738;28;20025;-80
2022/04/19 07:53:44;;;;;;;6.47;3.53;;;5.80;99.90;;;;;;5053464;28;20029;-80
2022/04/19 07:56:10;;;;;;;6.05;3.20;;;5.80;99.90;;;;;;5054026;28;20091;-80
2022/04/19 07:58:36;;;;;;;6.18;3.65;;;5.90;99.90;;;;;;5054639;28;20555;-79
2022/04/19 08:01:01;;;;;;;5.20;3.35;;;5.90;99.90;;;;;;5054464;28;20112;-79
2022/04/19 08:03:27;;;;;;;4.18;2.90;;;6.00;99.90;;;;;;5054453;28;20473;-79
2022/04/19 08:05:54;;;;;;;4.57;2.85;;;6.10;99.90;;;;;;5054643;28;20458;-79
2022/04/19 08:08:21;;;;;;;7.22;3.50;;;6.10;99.90;;;;;;5054424;28;20029;-79
2022/04/19 08:10:47;;;;;;;9.90;3.20;;;6.30;99.90;;;;;;5054625;28;20024;-80
2022/04/19 08:13:13;;;;;;;5.13;2.88;;;6.50;99.90;;;;;;5054415;28;20021;-80
2022/04/19 08:15:40;;;;;;;5.55;2.65;;;6.60;99.90;;;;;;5054120;28;20039;-80
2022/04/19 08:18:06;;;;;;;6.28;3.10;;;6.80;99.90;;;;;;5054184;28;20021;-80
2022/04/19 08:20:32;;;;;;;4.32;2.45;;;6.80;99.90;;;;;;5052871;28;20167;-80
2022/04/19 08:22:58;;;;;;;3.80;2.38;;;6.90;99.60;;;;;;5052863;28;20020;-80
2022/04/19 08:25:24;;;;;;;5.32;2.45;;;6.90;99.30;;;;;;5054177;28;20047;-80
2022/04/19 08:27:51;;;;;;;6.13;2.38;;;6.90;99.30;;;;;;5054374;28;20024;-80
2022/04/19 08:30:18;;;;;;;4.68;2.20;;;7.00;99.00;;;;;;5054777;28;20377;-80
2022/04/19 08:32:45;;;;;;;5.03;2.20;;;7.00;98.40;;;;;;5052575;28;20029;-80
2022/04/19 08:35:12;;;;;;;3.40;2.20;;;7.10;98.60;;;;;;5053980;28;20028;-79
2022/04/19 08:37:38;;;;;;;5.05;2.40;;;7.20;98.80;;;;;;5054104;28;20040;-79
2022/04/19 08:40:09;;;;;;;9.30;2.30;;;7.30;97.40;;;;;;5053842;28;20499;-80
2022/04/19 08:42:38;;;;;;;6.20;2.33;;;7.40;97.30;;;;;;5054331;28;20021;-80
2022/04/19 08:45:07;;;;;;;3.67;2.00;;;7.40;96.90;;;;;;5053653;28;20070;-80
2022/04/19 08:47:37;;;;;;;6.15;2.03;;;7.40;97.40;;;;;;5053806;28;20495;-80
2022/04/19 08:50:11;;;;;;;4.40;2.47;;;7.40;97.50;;;;;;5052658;28;20021;-80
2022/04/19 08:52:38;;;;;;;3.42;1.95;;;7.50;97.80;;;;;;5054165;28;20100;-80
2022/04/19 08:57:50;;;;;;;4.85;2.22;;;7.60;96.90;;;;;;5053997;28;20116;-80
2022/04/19 09:00:17;;;;;;;6.78;2.70;;;7.60;96.40;;;;;;5053691;28;20048;-79
2022/04/19 09:02:42;;;;;;;4.60;2.40;;;7.60;95.80;;;;;;5053401;28;20047;-80
2022/04/19 09:05:21;;;;;;;4.55;2.45;;;7.60;95.10;;;;;;5053514;28;20029;-80
2022/04/19 09:07:52;;;;;;;4.55;2.40;;;7.50;94.40;;;;;;5053795;28;20037;-80
2022/04/19 09:10:34;;;;;;;4.53;2.30;;;7.50;94.70;;;;;;5052201;28;20079;-80
2022/04/19 09:13:19;;;;;;;6.40;2.97;;;7.50;95.10;;;;;;5053709;28;20017;-79
2022/04/19 09:15:45;;;;;;;5.38;2.95;;;7.60;96.80;;;;;;5053394;28;20025;-80
2022/04/19 09:18:24;;;;;;;5.75;3.30;;;7.70;96.90;;;;;;5053918;28;20416;-79
2022/04/19 09:20:53;;;;;;;5.10;2.53;;;7.80;96.30;;;;;;5054600;28;20028;-79
2022/04/19 09:23:21;;;;;;;8.10;2.95;;;7.70;95.70;;;;;;5053754;28;20099;-80
2022/04/19 09:25:51;;;;;;;5.07;2.70;;;7.70;95.80;;;;;;5052016;28;20032;-80
2022/04/19 09:28:19;;;;;;;4.85;2.63;;;7.70;96.70;;;;;;5053427;28;20473;-79
2022/04/19 09:30:51;;;;;;;5.10;2.38;;;7.80;96.10;;;;;;5053994;28;20481;-79
2022/04/19 09:33:21;;;;;;;5.75;2.72;;;7.90;95.80;;;;;;5053316;28;20052;-80
2022/04/19 09:35:48;;;;;;;6.38;2.65;;;7.90;95.80;;;;;;5053319;28;20047;-79
2022/04/19 09:38:15;;;;;;;3.63;2.28;;;8.00;95.70;;;;;;5053228;28;20021;-79
2022/04/19 09:40:43;;;;;;;4.43;2.33;;;8.10;95.20;;;;;;5056587;28;20039;-79
2022/04/19 09:43:10;;;;;;;5.22;2.28;;;8.10;94.90;;;;;;5055863;28;20363;-79
2022/04/19 09:45:58;;;;;;;7.18;3.42;;;8.20;94.10;;;;;;5057698;28;20088;-80
2022/04/19 09:48:29;;;;;;;5.72;3.00;;;8.20;94.60;;;;;;5052193;28;20060;-79
2022/04/19 09:51:04;;;;;;;6.80;2.92;;;8.20;94.60;;;;;;5053159;28;20028;-80
2022/04/19 09:53:42;;;;;;;4.97;3.00;;;8.30;93.50;;;;;;5055714;28;20029;-80
2022/04/19 09:56:15;;;;;;;6.82;2.80;;;8.30;94.10;;;;;;5063395;28;20041;-80
2022/04/19 09:58:44;;;;;;;7.40;2.88;;;8.30;94.50;;;;;;5064550;28;20120;-81
2022/04/19 10:08:10;;;;;;;6.43;3.05;;;8.30;94.40;;;;;;5057006;28;20017;-80
2022/04/19 10:09:37;;;;;;;3.85;2.30;;;8.50;94.80;;;;;;5053699;28;20393;-79
2022/04/19 10:12:04;;;;;;;4.80;1.80;;;8.60;94.60;;;;;;5053689;28;20476;-79
2022/04/19 10:14:31;;;;;;;4.07;2.20;;;8.90;91.60;;;;;;5053262;28;20033;-79
2022/04/19 10:17:04;;;;;;;3.20;1.90;;;9.10;92.20;;;;;;5053271;28;20385;-79
2022/04/19 10:19:32;;;;;;;3.95;1.90;;;9.20;90.60;;;;;;5056419;28;20428;-79
2022/04/19 10:22:05;;;;;;;3.40;2.28;;;9.30;88.00;;;;;;5056044;28;20028;-79
2022/04/19 10:24:47;;;;;;;5.72;2.03;;;9.30;88.90;;;;;;5057256;28;20087;-79
2022/04/19 10:27:13;;;;;;;3.85;1.80;;;9.40;87.00;;;;;;5067278;28;20037;-80
2022/04/19 10:29:39;;;;;;;3.58;1.90;;;9.50;86.00;;;;;;5069815;28;20097;-80
2022/04/19 10:32:07;;;;;;;4.35;1.80;;;9.50;83.40;;;;;;5068722;28;20029;-79
2022/04/19 10:34:35;;;;;;;8.02;2.53;;;9.60;83.60;;;;;;5067370;28;20089;-79
2022/04/19 10:37:19;;;;;;;15.80;4.63;;;9.70;83.90;;;;;;5056610;28;20029;-79
2022/04/19 10:39:47;;;;;;;3.50;2.38;;;9.70;84.10;;;;;;5056426;28;20029;-79
2022/04/19 10:42:37;;;;;;;2.42;1.73;;;9.60;85.10;;;;;;5056934;28;20028;-79
2022/04/19 10:45:12;;;;;;;4.32;1.90;;;9.60;83.30;;;;;;5056893;28;20100;-79
2022/04/19 10:47:53;;;;;;;4.80;1.83;;;9.60;85.60;;;;;;5056521;28;20013;-79
2022/04/19 10:50:34;;;;;;;4.70;1.80;;;9.60;85.00;;;;;;5055414;28;20124;-79
2022/04/19 10:53:07;;;;;;;3.65;1.88;;;9.60;86.70;;;;;;5056519;28;20029;-79
2022/04/19 10:55:35;;;;;;;4.00;1.95;;;9.50;84.90;;;;;;5056513;28;20024;-79
2022/04/19 10:58:06;;;;;;;3.67;2.40;;;9.60;84.80;;;;;;5056632;28;20021;-78
2022/04/19 11:00:41;;;;;;;4.88;2.20;;;9.70;84.40;;;;;;5055412;28;20441;-79
2022/04/19 11:03:18;;;;;;;5.63;2.33;;;9.70;84.10;;;;;;5056113;28;20017;-79
2022/04/19 11:05:45;;;;;;;3.25;1.80;;;9.70;88.20;;;;;;5055107;28;20038;-78
2022/04/19 11:08:26;;;;;;;7.32;3.38;;;9.70;87.10;;;;;;5056591;28;20025;-78
2022/04/19 11:11:06;;;;;;;4.03;2.17;;;9.70;88.90;;;;;;5056378;28;20052;-79
2022/04/19 11:13:40;;;;;;;5.88;2.95;;;9.70;90.00;;;;;;5054673;28;20507;-79
2022/04/19 11:16:06;;;;;;;4.63;2.47;;;9.70;90.40;;;;;;5057578;28;20482;-79
2022/04/19 11:18:41;;;;;;;5.47;2.42;;;9.60;91.40;;;;;;5061174;28;20082;-80
2022/04/19 11:21:11;;;;;;;4.93;3.20;;;9.50;90.60;;;;;;5056320;28;20378;-79
2022/04/19 11:23:45;;;;;;;6.03;2.70;;;9.40;90.90;;;;;;5056105;28;20047;-79
2022/04/19 11:26:30;;;;;;;5.30;2.60;;;9.50;92.90;;;;;;5055506;28;20105;-79
2022/04/19 11:29:11;;;;;;;5.10;2.55;;;9.60;92.10;;;;;;5054133;28;20029;-79
2022/04/19 11:31:39;;;;;;;3.95;2.50;;;9.50;92.10;;;;;;5054540;28;20025;-79
2022/04/19 11:34:15;;;;;;;5.07;2.67;;;9.60;91.10;;;;;;5056561;28;20029;-80
2022/04/19 11:36:42;;;;;;;4.07;2.65;;;9.60;91.40;;;;;;5055376;28;20028;-80
2022/04/19 11:46:43;;;;;;;5.10;2.83;;;9.60;92.10;;;;;;5055044;28;20036;-80
2022/04/19 11:47:46;;;;;;;4.45;2.67;;;9.70;91.40;;;;;;5056252;28;20028;-79
2022/04/19 11:50:26;;;;;;;8.07;2.85;;;9.70;91.50;;;;;;5054552;28;20032;-79
2022/04/19 11:52:52;;;;;;;5.50;2.70;;;9.80;91.20;;;;;;5055689;28;20115;-79
2022/04/19 11:55:19;;;;;;;7.57;2.58;;;9.80;91.30;;;;;;5055482;28;20402;-79
2022/04/19 11:57:45;;;;;;;6.20;2.70;;;9.90;90.40;;;;;;5060966;28;20024;-80
2022/04/19 12:00:16;;;;;;;5.05;2.42;;;9.90;90.50;;;;;;5069730;28;20029;-80
2022/04/19 12:02:41;;;;;;;6.03;2.85;;;9.90;90.80;;;;;;5068408;28;20025;-80
2022/04/19 12:05:07;;;;;;;5.75;2.92;;;10.00;90.00;;;;;;5061392;28;20393;-80
2022/04/19 12:07:45;;;;;;;5.68;2.30;;;10.10;89.60;;;;;;5060929;28;20021;-80
2022/04/19 12:10:10;;;;;;;6.63;2.92;;;10.20;89.90;;;;;;5054588;28;20025;-79
2022/04/19 12:12:37;;;;;;;6.85;3.05;;;10.30;89.80;;;;;;5054353;28;20021;-79
2022/04/19 12:15:03;;;;;;;5.47;2.35;;;10.40;87.70;;;;;;5054396;28;20380;-79
2022/04/19 12:17:30;;;;;;;3.05;2.03;;;10.50;87.10;;;;;;5054711;28;20103;-79
2022/04/19 12:20:03;;;;;;;8.25;3.40;;;10.70;86.80;;;;;;5055420;28;20043;-79
2022/04/19 12:22:34;;;;;;;22.83;7.35;;;10.70;87.30;;;;;;5054644;28;20462;-79
2022/04/19 12:25:00;;;;;;;8.73;3.40;;;10.80;86.20;;;;;;5054114;28;20025;-79
2022/04/19 12:27:28;;;;;;;5.80;3.00;;;10.80;86.20;;;;;;5053877;28;20025;-79
2022/04/19 12:30:02;;;;;;;4.70;2.60;;;10.80;84.70;;;;;;5052447;28;20017;-79
2022/04/19 12:32:51;;;;;;;4.63;2.15;;;10.80;84.90;;;;;;5052247;28;20481;-79
2022/04/19 12:35:17;;;;;;;7.18;3.67;;;10.80;82.90;;;;;;5052140;28;20021;-79
2022/04/19 12:37:44;;;;;;;14.30;6.13;;;10.80;84.60;;;;;;5053866;28;20021;-79
2022/04/19 12:40:10;;;;;;;10.73;4.85;;;10.80;84.90;;;;;;5053321;28;20052;-79
2022/04/19 12:42:49;;;;;;;9.20;3.70;;;10.90;83.00;;;;;;5053435;28;20025;-78
2022/04/19 12:45:15;;;;;;;6.30;3.22;;;10.80;82.10;;;;;;5052177;28;20021;-79
2022/04/19 12:47:50;;;;;;;8.23;4.45;;;10.70;81.30;;;;;;5053847;28;20373;-79
2022/04/19 12:50:19;;;;;;;7.25;3.75;;;10.70;83.20;;;;;;5052339;28;20080;-79
2022/04/19 12:52:45;;;;;;;4.88;2.55;;;10.60;83.50;;;;;;5054004;28;20463;-79
2022/04/19 12:55:11;;;;;;;4.63;2.65;;;10.60;82.90;;;;;;5053306;28;20025;-79
2022/04/19 12:57:42;;;;;;;5.60;3.05;;;10.60;82.10;;;;;;5053784;28;20027;-79
2022/04/19 13:00:13;;;;;;;4.60;2.88;;;10.60;82.10;;;;;;5053468;28;20017;-79
2022/04/19 13:02:41;;;;;;;4.43;2.42;;;10.60;84.20;;;;;;5053515;28;20075;-79
2022/04/19 13:05:07;;;;;;;4.70;2.80;;;10.60;84.40;;;;;;5053384;28;20025;-79
2022/04/19 13:13:05;;;;;;;4.30;2.53;;;10.70;84.30;;;;;;5053195;28;20028;-79
2022/04/19 13:15:35;;;;;;;3.92;2.40;;;10.70;84.00;;;;;;5052841;28;20060;-78
2022/04/19 13:18:01;;;;;;;5.88;2.55;;;10.70;84.00;;;;;;5053081;28;20024;-80
2022/04/19 13:20:28;;;;;;;5.07;2.17;;;10.70;83.30;;;;;;5050760;28;20094;-79
2022/04/19 13:22:54;;;;;;;4.18;2.25;;;10.80;83.60;;;;;;5041381;28;20028;-79
2022/04/19 13:25:20;;;;;;;7.38;2.60;;;10.80;84.20;;;;;;5054017;28;20021;-78
2022/04/19 13:27:47;;;;;;;4.80;2.80;;;10.80;84.20;;;;;;5052316;28;20371;-78
2022/04/19 13:30:13;;;;;;;4.55;2.67;;;10.90;84.30;;;;;;5053497;28;20067;-78
2022/04/19 13:32:41;;;;;;;3.75;2.38;;;10.80;82.70;;;;;;5053337;28;20058;-79
2022/04/19 13:35:08;;;;;;;4.95;2.58;;;10.80;83.90;;;;;;5051714;28;20028;-79
2022/04/19 13:40:20;;;;;;;4.57;2.80;;;10.90;84.10;;;;;;5053077;28;20087;-79
2022/04/19 13:42:47;;;;;;;5.60;2.70;;;10.80;82.40;;;;;;5052696;28;20030;-78